Time;durP1;ratioP1;P1;durP2;ratioP2;P2;SDS_P1;SDS_P2;PMS_P1;PMS_P2;Temp;Humidity;BMP_temperature;BMP_pressure;BME280_temperature;BME280_humidity;BME280_pressure;Samples;Min_cycle;Max_cycle;Signal;HPM_P1;HPM_P2
2022/05/24 00:00:31;;;;;;;2.67;2.20;;;;;;;;;;4986454;28;20211;-44
2022/05/24 00:02:59;;;;;;;3.40;2.03;;;;;;;;;;4983399;28;20209;-36
2022/05/24 00:05:27;;;;;;;5.10;1.90;;;;;;;;;;4978794;28;20235;-44
2022/05/24 00:07:54;;;;;;;3.97;2.23;;;;;;;;;;4985006;28;20204;-44
2022/05/24 00:10:23;;;;;;;4.10;2.30;;;;;;;;;;4987948;28;20210;-42
2022/05/24 00:12:51;;;;;;;3.90;2.13;;;;;;;;;;4980165;28;20213;-43
2022/05/24 00:15:28;;;;;;;5.57;1.97;;;;;;;;;;4988763;28;20211;-42
2022/05/24 00:17:56;;;;;;;5.80;1.80;;;;;;;;;;4991654;28;20203;-43
2022/05/24 00:20:25;;;;;;;3.97;1.93;;;;;;;;;;4988821;28;20200;-41
2022/05/24 00:22:53;;;;;;;4.17;2.37;;;;;;;;;;4974498;28;20271;-43
2022/05/24 00:25:20;;;;;;;7.30;2.20;;;;;;;;;;4973950;28;20205;-46
2022/05/24 00:27:47;;;;;;;3.07;2.20;;;;;;;;;;4973936;28;20216;-41
2022/05/24 00:30:17;;;;;;;6.30;2.53;;;;;;;;;;4986843;28;20209;-38
2022/05/24 00:32:44;;;;;;;3.07;1.90;;;;;;;;;;4975390;28;20297;-46
2022/05/24 00:35:12;;;;;;;5.03;1.97;;;;;;;;;;4981583;28;20209;-43
2022/05/24 00:37:40;;;;;;;5.37;2.20;;;;;;;;;;4982775;28;20221;-43
2022/05/24 00:40:09;;;;;;;4.70;2.10;;;;;;;;;;4993288;28;20205;-41
2022/05/24 00:42:37;;;;;;;4.30;1.90;;;;;;;;;;4975944;28;20203;-45
2022/05/24 00:45:07;;;;;;;2.20;1.73;;;;;;;;;;4977651;28;20228;-44
2022/05/24 00:47:39;;;;;;;1.63;1.53;;;;;;;;;;4977845;28;20229;-42
2022/05/24 00:50:08;;;;;;;1.33;1.23;;;;;;;;;;4987684;28;20201;-43
2022/05/24 00:52:42;;;;;;;3.90;1.67;;;;;;;;;;4973188;28;20205;-39
2022/05/24 00:55:10;;;;;;;4.63;1.70;;;;;;;;;;4973585;28;20209;-37
2022/05/24 00:57:41;;;;;;;1.30;1.20;;;;;;;;;;4982571;28;20235;-43
2022/05/24 01:00:10;;;;;;;1.40;1.17;;;;;;;;;;4980882;28;20205;-44
2022/05/24 01:02:41;;;;;;;1.30;1.20;;;;;;;;;;4985850;28;20205;-42
2022/05/24 01:05:11;;;;;;;1.00;0.80;;;;;;;;;;4985184;28;20244;-38
2022/05/24 01:07:38;;;;;;;1.67;0.93;;;;;;;;;;4989167;28;20229;-41
2022/05/24 01:10:07;;;;;;;1.43;1.00;;;;;;;;;;4992270;28;20211;-42
2022/05/24 01:12:35;;;;;;;4.17;1.00;;;;;;;;;;4980723;28;20206;-42
2022/05/24 01:15:04;;;;;;;1.00;0.90;;;;;;;;;;4979306;28;20225;-43
2022/05/24 01:17:31;;;;;;;2.60;0.70;;;;;;;;;;4971699;28;20233;-42
2022/05/24 01:20:00;;;;;;;0.90;0.67;;;;;;;;;;4980948;28;20212;-44
2022/05/24 01:22:34;;;;;;;0.70;0.70;;;;;;;;;;4980531;28;20599;-44
2022/05/24 01:25:04;;;;;;;0.80;0.80;;;;;;;;;;4972675;28;20208;-42
2022/05/24 01:27:32;;;;;;;3.70;1.10;;;;;;;;;;4973768;28;20538;-46
2022/05/24 01:29:59;;;;;;;1.13;0.83;;;;;;;;;;4979086;28;20204;-43
2022/05/24 01:37:56;;;;;;;1.67;0.70;;;;;;;;;;4980326;28;20331;-44
2022/05/24 01:40:24;;;;;;;1.17;0.70;;;;;;;;;;4971265;28;20209;-41
2022/05/24 01:42:52;;;;;;;3.10;0.93;;;;;;;;;;4979014;28;20208;-38
2022/05/24 01:45:22;;;;;;;0.80;0.80;;;;;;;;;;4991224;28;20196;-43
2022/05/24 01:47:51;;;;;;;1.83;0.70;;;;;;;;;;4985656;28;20224;-41
2022/05/24 01:50:19;;;;;;;1.60;0.97;;;;;;;;;;4977218;28;20216;-42
2022/05/24 01:52:49;;;;;;;0.60;0.60;;;;;;;;;;4980102;28;20211;-43
2022/05/24 01:55:18;;;;;;;2.07;0.87;;;;;;;;;;4971754;28;20205;-37
2022/05/24 01:57:46;;;;;;;1.27;0.90;;;;;;;;;;4980400;28;20231;-41
2022/05/24 02:00:15;;;;;;;1.00;0.80;;;;;;;;;;4972180;28;20209;-40
2022/05/24 02:02:43;;;;;;;0.80;0.80;;;;;;;;;;4973616;28;20206;-41
2022/05/24 02:05:10;;;;;;;0.63;0.63;;;;;;;;;;4990594;28;20212;-41
2022/05/24 02:07:37;;;;;;;0.80;0.80;;;;;;;;;;4974860;28;20316;-39
2022/05/24 02:10:05;;;;;;;2.10;0.80;;;;;;;;;;4970358;28;20210;-39
2022/05/24 02:12:34;;;;;;;1.83;0.90;;;;;;;;;;4975116;28;20201;-40
2022/05/24 02:15:03;;;;;;;0.70;0.70;;;;;;;;;;4978773;28;20208;-44
2022/05/24 02:17:34;;;;;;;1.53;0.80;;;;;;;;;;4971855;28;20233;-43
2022/05/24 02:20:03;;;;;;;1.53;0.80;;;;;;;;;;4979828;28;20196;-43
2022/05/24 02:22:31;;;;;;;1.50;0.80;;;;;;;;;;4974969;28;20206;-41
2022/05/24 02:24:59;;;;;;;0.70;0.70;;;;;;;;;;4971702;28;20208;-43
2022/05/24 02:27:26;;;;;;;0.70;0.70;;;;;;;;;;4975189;28;20220;-39
2022/05/24 02:29:53;;;;;;;0.93;0.83;;;;;;;;;;4974431;28;20197;-40
2022/05/24 02:32:20;;;;;;;0.73;0.73;;;;;;;;;;4971117;28;20419;-43
2022/05/24 02:34:49;;;;;;;0.90;0.90;;;;;;;;;;4977694;28;20217;-39
2022/05/24 02:37:16;;;;;;;1.13;0.70;;;;;;;;;;4976778;28;20224;-43
2022/05/24 02:42:27;;;;;;;3.70;1.40;;;;;;;;;;4979475;28;20298;-46
2022/05/24 02:44:54;;;;;;;3.00;0.70;;;;;;;;;;4981188;28;20200;-41
2022/05/24 02:47:22;;;;;;;3.60;0.80;;;;;;;;;;4971839;28;20231;-38
2022/05/24 02:49:50;;;;;;;1.90;0.80;;;;;;;;;;4979178;28;20218;-44
2022/05/24 02:52:18;;;;;;;0.80;0.73;;;;;;;;;;4970847;28;20204;-42
2022/05/24 02:54:45;;;;;;;2.47;0.90;;;;;;;;;;4970830;28;20212;-45
2022/05/24 02:57:12;;;;;;;0.73;0.73;;;;;;;;;;4979406;28;20220;-43
2022/05/24 02:59:39;;;;;;;1.90;0.57;;;;;;;;;;4979651;28;20225;-45
2022/05/24 03:02:07;;;;;;;1.40;1.20;;;;;;;;;;4970041;28;20209;-44
2022/05/24 03:09:48;;;;;;;0.67;0.67;;;;;;;;;;4991465;28;20211;-43
2022/05/24 03:15:00;;;;;;;1.27;0.80;;;;;;;;;;4978680;28;20203;-41
2022/05/24 03:17:28;;;;;;;1.30;0.80;;;;;;;;;;4978961;28;20231;-40
2022/05/24 03:19:55;;;;;;;1.47;1.13;;;;;;;;;;4978270;28;20212;-42
2022/05/24 03:22:24;;;;;;;0.80;0.80;;;;;;;;;;4986472;28;20287;-43
2022/05/24 03:24:51;;;;;;;0.70;0.70;;;;;;;;;;4987686;28;20302;-40
2022/05/24 03:27:18;;;;;;;2.13;0.80;;;;;;;;;;4987602;28;20226;-39
2022/05/24 03:29:46;;;;;;;1.53;0.70;;;;;;;;;;4980987;28;20216;-40
2022/05/24 03:32:14;;;;;;;1.93;1.10;;;;;;;;;;4971764;28;20212;-39
2022/05/24 03:34:41;;;;;;;0.73;0.73;;;;;;;;;;4982201;28;20283;-41
2022/05/24 03:37:09;;;;;;;2.93;1.00;;;;;;;;;;4977046;28;20220;-35
2022/05/24 03:39:37;;;;;;;0.83;0.83;;;;;;;;;;4994780;28;20231;-39
2022/05/24 03:42:05;;;;;;;2.10;0.90;;;;;;;;;;4992835;28;20205;-40
2022/05/24 03:44:32;;;;;;;1.17;0.90;;;;;;;;;;4980120;28;20209;-42
2022/05/24 03:46:59;;;;;;;0.70;0.70;;;;;;;;;;4983598;28;20224;-39
2022/05/24 03:49:26;;;;;;;0.90;0.90;;;;;;;;;;4983734;28;20200;-42
2022/05/24 03:51:54;;;;;;;0.73;0.73;;;;;;;;;;4982890;28;20204;-40
2022/05/24 03:54:21;;;;;;;0.80;0.80;;;;;;;;;;4975338;28;20209;-37
2022/05/24 03:59:34;;;;;;;1.97;0.70;;;;;;;;;;4976253;28;20237;-36
2022/05/24 04:02:01;;;;;;;1.43;0.80;;;;;;;;;;4975590;28;20200;-39
2022/05/24 04:04:29;;;;;;;0.90;0.90;;;;;;;;;;4976912;28;20663;-35
2022/05/24 04:06:56;;;;;;;0.93;0.93;;;;;;;;;;4984612;28;20852;-43
2022/05/24 04:09:23;;;;;;;0.93;0.93;;;;;;;;;;4976843;28;20212;-36
2022/05/24 04:11:54;;;;;;;5.70;1.03;;;;;;;;;;4977014;28;20216;-38
2022/05/24 04:14:21;;;;;;;1.70;0.80;;;;;;;;;;4987896;28;20283;-44
2022/05/24 04:16:48;;;;;;;2.10;1.00;;;;;;;;;;4993581;28;20314;-37
2022/05/24 04:19:15;;;;;;;1.00;0.97;;;;;;;;;;4981301;28;20219;-37
2022/05/24 04:21:43;;;;;;;2.10;1.00;;;;;;;;;;4994222;28;20211;-40
2022/05/24 04:24:10;;;;;;;0.70;0.70;;;;;;;;;;4996640;28;20204;-36
2022/05/24 04:26:37;;;;;;;0.80;0.80;;;;;;;;;;4995628;28;20235;-37
2022/05/24 04:29:05;;;;;;;1.17;0.80;;;;;;;;;;4981654;28;20204;-40
2022/05/24 04:31:32;;;;;;;0.90;0.80;;;;;;;;;;4988700;28;20200;-41
2022/05/24 04:34:00;;;;;;;2.10;0.83;;;;;;;;;;4990858;28;20210;-41
2022/05/24 04:36:27;;;;;;;1.27;0.77;;;;;;;;;;4989442;28;20225;-39
2022/05/24 04:38:54;;;;;;;0.90;0.90;;;;;;;;;;4996633;28;20571;-37
2022/05/24 04:44:08;;;;;;;1.90;1.10;;;;;;;;;;4983804;28;20195;-39
2022/05/24 04:49:16;;;;;;;1.57;1.40;;;;;;;;;;4984639;28;20207;-41
2022/05/24 04:51:43;;;;;;;2.13;1.23;;;;;;;;;;4995333;28;20623;-41
2022/05/24 04:54:10;;;;;;;1.10;1.00;;;;;;;;;;4996776;28;20211;-38
2022/05/24 04:56:37;;;;;;;3.23;1.10;;;;;;;;;;4994258;28;20231;-40
2022/05/24 04:59:04;;;;;;;1.03;1.00;;;;;;;;;;4989250;28;20229;-41
2022/05/24 05:01:33;;;;;;;1.00;1.00;;;;;;;;;;4983340;28;20197;-40
2022/05/24 05:04:01;;;;;;;0.90;0.90;;;;;;;;;;4986045;28;20217;-43
2022/05/24 05:06:28;;;;;;;0.80;0.80;;;;;;;;;;4982943;28;20232;-37
2022/05/24 05:08:55;;;;;;;1.93;1.00;;;;;;;;;;4975648;28;20209;-37
2022/05/24 05:11:22;;;;;;;0.90;0.90;;;;;;;;;;4974388;28;20213;-33
2022/05/24 05:13:49;;;;;;;3.60;1.10;;;;;;;;;;4976345;28;20224;-38
2022/05/24 05:16:16;;;;;;;2.23;0.90;;;;;;;;;;4983663;28;20294;-37
2022/05/24 05:18:45;;;;;;;1.07;1.00;;;;;;;;;;4976839;28;20236;-34
2022/05/24 05:21:13;;;;;;;1.80;1.30;;;;;;;;;;4983541;28;20208;-38
2022/05/24 05:23:40;;;;;;;1.37;1.10;;;;;;;;;;4993061;28;20207;-38
2022/05/24 05:26:07;;;;;;;1.43;1.20;;;;;;;;;;4991109;28;20286;-41
2022/05/24 05:28:34;;;;;;;5.17;1.47;;;;;;;;;;4983143;28;20196;-38
2022/05/24 05:31:22;;;;;;;2.33;1.60;;;;;;;;;;4974383;28;20200;-37
2022/05/24 05:33:51;;;;;;;1.53;1.43;;;;;;;;;;4978903;28;20203;-41
2022/05/24 05:36:19;;;;;;;1.67;1.30;;;;;;;;;;4981376;28;20232;-38
2022/05/24 05:38:47;;;;;;;1.17;1.07;;;;;;;;;;4994890;28;20224;-38
2022/05/24 05:41:14;;;;;;;1.23;1.23;;;;;;;;;;4988851;28;20212;-42
2022/05/24 05:43:41;;;;;;;2.40;1.60;;;;;;;;;;4985964;28;20207;-41
2022/05/24 05:46:09;;;;;;;1.73;1.27;;;;;;;;;;4975731;28;20240;-36
2022/05/24 05:48:36;;;;;;;1.10;1.10;;;;;;;;;;4982498;28;20204;-40
2022/05/24 05:51:06;;;;;;;1.23;1.17;;;;;;;;;;4978997;28;20279;-35
2022/05/24 05:53:33;;;;;;;1.77;1.63;;;;;;;;;;4985202;28;20238;-38
2022/05/24 05:56:00;;;;;;;2.57;1.30;;;;;;;;;;4979720;28;20231;-42
2022/05/24 05:58:28;;;;;;;3.20;2.90;;;;;;;;;;4994071;28;20361;-41
2022/05/24 06:00:55;;;;;;;9.00;3.53;;;;;;;;;;4994394;28;20292;-36
2022/05/24 06:03:22;;;;;;;3.13;2.10;;;;;;;;;;4989858;28;20228;-39
2022/05/24 06:05:51;;;;;;;2.13;2.00;;;;;;;;;;4976754;28;20244;-42
2022/05/24 06:08:19;;;;;;;2.10;1.90;;;;;;;;;;4994015;28;20212;-41
2022/05/24 06:10:47;;;;;;;2.20;1.30;;;;;;;;;;4993888;28;20215;-40
2022/05/24 06:13:14;;;;;;;3.03;1.47;;;;;;;;;;4978142;28;20211;-40
2022/05/24 06:15:41;;;;;;;3.80;1.53;;;;;;;;;;4973843;28;20228;-34
2022/05/24 06:18:08;;;;;;;1.57;1.40;;;;;;;;;;4973890;28;20208;-41
2022/05/24 06:20:35;;;;;;;1.90;1.80;;;;;;;;;;4977227;28;20272;-38
2022/05/24 06:23:03;;;;;;;2.13;1.93;;;;;;;;;;4986612;28;20204;-39
2022/05/24 06:25:32;;;;;;;3.17;1.80;;;;;;;;;;4993832;28;20208;-39
2022/05/24 06:27:59;;;;;;;2.53;1.80;;;;;;;;;;4980891;28;20279;-41
2022/05/24 06:30:28;;;;;;;1.67;1.57;;;;;;;;;;4979614;28;20207;-36
2022/05/24 06:32:56;;;;;;;3.70;1.63;;;;;;;;;;4989633;28;20235;-38
2022/05/24 06:35:23;;;;;;;1.17;0.90;;;;;;;;;;4980662;28;20206;-43
2022/05/24 06:37:50;;;;;;;1.40;1.30;;;;;;;;;;4974422;28;20206;-41
2022/05/24 06:40:20;;;;;;;1.20;1.10;;;;;;;;;;4974170;28;20222;-37
2022/05/24 06:42:49;;;;;;;1.43;1.03;;;;;;;;;;4975887;28;20208;-37
2022/05/24 06:45:16;;;;;;;6.70;1.10;;;;;;;;;;4973224;28;20209;-36
2022/05/24 06:47:43;;;;;;;1.00;0.90;;;;;;;;;;4980057;28;20225;-38
2022/05/24 06:50:12;;;;;;;1.80;0.83;;;;;;;;;;4988394;28;20211;-42
2022/05/24 06:52:39;;;;;;;1.30;1.03;;;;;;;;;;4975832;28;20205;-39
2022/05/24 06:55:08;;;;;;;1.03;0.90;;;;;;;;;;4972751;28;20210;-36
2022/05/24 06:57:35;;;;;;;2.07;1.03;;;;;;;;;;4974092;28;20228;-38
2022/05/24 07:02:47;;;;;;;1.67;0.83;;;;;;;;;;4939645;28;20661;-38
2022/05/24 07:05:16;;;;;;;1.80;1.00;;;;;;;;;;4983714;28;20506;-34
2022/05/24 07:07:43;;;;;;;0.70;0.70;;;;;;;;;;4974180;28;20201;-41
2022/05/24 07:10:12;;;;;;;1.02;0.60;;;;;;;;;;4974571;28;20208;-33
2022/05/24 07:12:40;;;;;;;3.67;1.03;;;;;;;;;;4981839;28;20212;-38
2022/05/24 07:15:12;;;;;;;0.73;0.70;;;;;;;;;;4982559;28;20209;-41
2022/05/24 07:17:39;;;;;;;0.80;0.80;;;;;;;;;;4988128;28;20191;-41
2022/05/24 07:20:06;;;;;;;1.43;0.90;;;;;;;;;;4994165;28;20224;-40
2022/05/24 07:22:35;;;;;;;1.80;0.83;;;;;;;;;;4978171;28;20210;-41
2022/05/24 07:25:02;;;;;;;1.00;0.80;;;;;;;;;;4974849;28;20737;-36
2022/05/24 07:27:29;;;;;;;2.37;0.90;;;;;;;;;;4980462;28;20224;-41
2022/05/24 07:29:56;;;;;;;0.77;0.73;;;;;;;;;;4993689;28;20638;-38
2022/05/24 07:32:24;;;;;;;2.00;0.70;;;;;;;;;;4990702;28;20217;-39
2022/05/24 07:34:52;;;;;;;1.60;0.70;;;;;;;;;;4986215;28;20651;-40
2022/05/24 07:37:21;;;;;;;1.60;0.50;;;;;;;;;;4982749;28;20296;-43
2022/05/24 07:39:48;;;;;;;3.33;0.50;;;;;;;;;;4974206;28;20230;-40
2022/05/24 07:47:46;;;;;;;1.17;0.50;;;;;;;;;;4976133;28;20570;-41
2022/05/24 07:50:13;;;;;;;0.93;0.50;;;;;;;;;;4980491;28;20364;-43
2022/05/24 07:52:40;;;;;;;9.97;0.90;;;;;;;;;;4981678;28;20208;-42
2022/05/24 07:55:07;;;;;;;3.97;0.50;;;;;;;;;;4992573;28;20213;-39
2022/05/24 07:57:34;;;;;;;1.23;0.43;;;;;;;;;;4984175;28;20309;-37
2022/05/24 08:00:02;;;;;;;2.63;0.50;;;;;;;;;;4973192;28;20236;-39
2022/05/24 08:02:29;;;;;;;9.43;0.73;;;;;;;;;;4985051;28;20205;-38
2022/05/24 08:04:58;;;;;;;2.93;0.43;;;;;;;;;;4987744;28;20204;-36
2022/05/24 08:07:25;;;;;;;1.23;0.50;;;;;;;;;;4977219;28;20217;-42
2022/05/24 08:09:52;;;;;;;3.67;0.57;;;;;;;;;;4970278;28;20209;-41
2022/05/24 08:12:19;;;;;;;0.63;0.40;;;;;;;;;;4977567;28;20213;-42
2022/05/24 08:14:47;;;;;;;0.60;0.60;;;;;;;;;;4977284;28;20222;-38
2022/05/24 08:17:14;;;;;;;1.43;0.60;;;;;;;;;;4969148;28;20526;-39
2022/05/24 08:19:41;;;;;;;1.87;0.83;;;;;;;;;;4978368;28;20236;-40
2022/05/24 08:22:17;;;;;;;2.53;0.60;;;;;;;;;;4982430;28;20205;-37
2022/05/24 08:24:44;;;;;;;0.93;0.60;;;;;;;;;;4990700;28;20199;-42
2022/05/24 08:27:14;;;;;;;0.63;0.60;;;;;;;;;;5000950;28;20901;-37
2022/05/24 08:29:41;;;;;;;4.77;0.77;;;;;;;;;;4992910;28;20208;-41
2022/05/24 08:32:08;;;;;;;3.40;0.50;;;;;;;;;;4977550;28;20200;-39
2022/05/24 08:34:36;;;;;;;1.80;0.40;;;;;;;;;;4985715;28;20227;-38
2022/05/24 08:37:03;;;;;;;1.27;0.50;;;;;;;;;;4982522;28;20229;-36
2022/05/24 08:39:32;;;;;;;1.03;0.50;;;;;;;;;;4982287;28;20233;-42
2022/05/24 08:42:05;;;;;;;3.83;0.53;;;;;;;;;;4988114;28;20211;-40
2022/05/24 08:50:07;;;;;;;1.20;0.60;;;;;;;;;;4982284;28;20255;-41
2022/05/24 08:52:36;;;;;;;0.83;0.47;;;;;;;;;;4994777;28;20258;-37
2022/05/24 08:55:06;;;;;;;1.53;0.40;;;;;;;;;;4996467;28;20204;-40
2022/05/24 08:57:38;;;;;;;0.60;0.60;;;;;;;;;;4981922;28;20229;-39
2022/05/24 09:00:07;;;;;;;0.80;0.53;;;;;;;;;;4991854;28;20675;-37
2022/05/24 09:02:34;;;;;;;0.40;0.40;;;;;;;;;;4991955;28;20218;-40
2022/05/24 09:05:01;;;;;;;2.27;0.80;;;;;;;;;;5065582;23;20238;-30
2022/05/24 09:07:33;;;;;;;1.07;0.60;;;;;;;;;;4991140;28;20310;-29
2022/05/24 09:10:03;;;;;;;0.67;0.40;;;;;;;;;;4993516;28;20218;-32
2022/05/24 09:12:37;;;;;;;3.83;0.40;;;;;;;;;;4987358;28;20233;-29
2022/05/24 09:15:11;;;;;;;1.27;0.53;;;;;;;;;;4993611;28;20209;-28
2022/05/24 09:17:42;;;;;;;0.97;0.50;;;;;;;;;;4989659;28;20207;-30
2022/05/24 09:20:14;;;;;;;0.90;0.37;;;;;;;;;;4989894;28;20581;-28
2022/05/24 09:22:41;;;;;;;1.30;0.30;;;;;;;;;;4994678;28;20206;-32
2022/05/24 09:25:09;;;;;;;0.50;0.50;;;;;;;;;;4994710;28;20210;-30
2022/05/24 09:27:53;;;;;;;0.60;0.50;;;;;;;;;;4991090;28;20228;-27
2022/05/24 09:30:26;;;;;;;0.50;0.50;;;;;;;;;;4982820;28;20193;-31
2022/05/24 09:32:54;;;;;;;2.30;0.40;;;;;;;;;;4982448;28;20213;-31
2022/05/24 09:35:23;;;;;;;1.27;0.53;;;;;;;;;;4984278;28;20211;-30
2022/05/24 09:38:08;;;;;;;1.20;0.50;;;;;;;;;;4994185;28;20204;-29
2022/05/24 09:40:46;;;;;;;1.87;0.80;;;;;;;;;;4994945;28;20213;-31
2022/05/24 09:43:19;;;;;;;1.30;0.60;;;;;;;;;;4987495;28;20205;-28
2022/05/24 09:45:48;;;;;;;1.03;0.50;;;;;;;;;;4990701;28;20235;-31
2022/05/24 09:48:22;;;;;;;2.13;0.50;;;;;;;;;;4973311;28;20208;-27
2022/05/24 09:50:52;;;;;;;0.53;0.50;;;;;;;;;;4979122;28;20199;-28
2022/05/24 09:53:20;;;;;;;0.50;0.47;;;;;;;;;;4975774;28;20208;-30
2022/05/24 09:55:48;;;;;;;1.33;0.40;;;;;;;;;;4974402;28;20333;-28
2022/05/24 09:58:31;;;;;;;2.67;0.50;;;;;;;;;;4974208;28;20572;-29
2022/05/24 10:01:00;;;;;;;7.90;0.60;;;;;;;;;;4993450;28;20225;-29
2022/05/24 10:03:29;;;;;;;0.53;0.53;;;;;;;;;;4980883;28;20209;-31
2022/05/24 10:06:14;;;;;;;0.40;0.40;;;;;;;;;;4990364;28;20225;-30
2022/05/24 10:08:44;;;;;;;1.40;0.43;;;;;;;;;;4991346;28;20206;-28
2022/05/24 10:11:17;;;;;;;1.90;0.60;;;;;;;;;;4994036;28;20214;-30
2022/05/24 10:13:49;;;;;;;0.50;0.50;;;;;;;;;;4976783;28;20206;-30
2022/05/24 10:16:20;;;;;;;0.60;0.40;;;;;;;;;;4988468;28;20253;-27
2022/05/24 10:18:52;;;;;;;0.50;0.50;;;;;;;;;;4986787;28;20206;-31
2022/05/24 10:21:22;;;;;;;0.57;0.57;;;;;;;;;;4973760;28;20215;-29
2022/05/24 10:23:54;;;;;;;0.50;0.50;;;;;;;;;;4974854;28;20210;-29
2022/05/24 10:26:24;;;;;;;1.63;0.60;;;;;;;;;;4974863;28;20232;-30
2022/05/24 10:28:59;;;;;;;0.50;0.50;;;;;;;;;;4977020;28;20940;-29
2022/05/24 10:31:36;;;;;;;0.40;0.30;;;;;;;;;;4989332;28;20194;-28
2022/05/24 10:40:03;;;;;;;0.43;0.40;;;;;;;;;;4989282;28;20239;-28
2022/05/24 10:42:36;;;;;;;3.03;0.43;;;;;;;;;;4979685;28;20281;-31
2022/05/24 10:45:07;;;;;;;0.47;0.37;;;;;;;;;;4979789;28;20204;-30
2022/05/24 10:47:36;;;;;;;0.43;0.43;;;;;;;;;;4982234;28;20225;-29
2022/05/24 10:50:05;;;;;;;0.50;0.40;;;;;;;;;;4978979;28;20205;-28
2022/05/24 10:52:35;;;;;;;2.53;0.40;;;;;;;;;;4981077;28;20207;-27
2022/05/24 10:55:05;;;;;;;0.77;0.30;;;;;;;;;;4987236;28;20205;-31
2022/05/24 10:57:35;;;;;;;0.40;0.30;;;;;;;;;;4983335;28;20230;-30
2022/05/24 11:00:06;;;;;;;2.17;0.33;;;;;;;;;;4972615;28;20217;-31
2022/05/24 11:02:37;;;;;;;0.30;0.30;;;;;;;;;;4984868;28;20293;-28
2022/05/24 11:05:08;;;;;;;0.40;0.30;;;;;;;;;;4982634;28;20218;-29
2022/05/24 11:07:36;;;;;;;0.40;0.40;;;;;;;;;;4984509;28;20225;-29
2022/05/24 11:10:09;;;;;;;0.20;0.20;;;;;;;;;;4986254;28;20220;-28
2022/05/24 11:12:42;;;;;;;0.27;0.27;;;;;;;;;;4989272;28;20232;-28
2022/05/24 11:15:16;;;;;;;0.30;0.30;;;;;;;;;;4981825;28;20278;-28
2022/05/24 11:17:44;;;;;;;2.53;0.50;;;;;;;;;;4977343;28;20205;-30
2022/05/24 11:20:12;;;;;;;0.53;0.40;;;;;;;;;;4981045;28;20268;-28
2022/05/24 11:22:41;;;;;;;1.33;0.30;;;;;;;;;;4990086;28;20213;-30
2022/05/24 11:25:11;;;;;;;0.50;0.50;;;;;;;;;;4992759;28;20236;-27
2022/05/24 11:27:40;;;;;;;0.93;0.30;;;;;;;;;;4983147;28;20218;-29
2022/05/24 11:30:12;;;;;;;0.50;0.47;;;;;;;;;;4992205;28;20205;-27
2022/05/24 11:32:43;;;;;;;1.27;0.40;;;;;;;;;;4986321;28;20213;-31
2022/05/24 11:35:12;;;;;;;0.50;0.50;;;;;;;;;;4983725;28;20211;-29
2022/05/24 11:37:42;;;;;;;0.50;0.43;;;;;;;;;;4975727;28;20211;-32
2022/05/24 11:40:28;;;;;;;0.50;0.50;;;;;;;;;;4973536;28;20219;-30
2022/05/24 11:42:55;;;;;;;0.60;0.60;;;;;;;;;;4975005;28;20455;-31
2022/05/24 11:45:58;;;;;;;0.20;0.20;;;;;;;;;;4972862;28;20217;-29
2022/05/24 11:48:48;;;;;;;0.40;0.40;;;;;;;;;;4971966;28;20244;-30
2022/05/24 11:51:33;;;;;;;0.43;0.40;;;;;;;;;;4972814;28;20205;-29
2022/05/24 11:54:01;;;;;;;1.00;0.50;;;;;;;;;;4973383;28;20211;-28
2022/05/24 11:56:29;;;;;;;0.57;0.50;;;;;;;;;;4973940;28;20230;-30
2022/05/24 11:58:58;;;;;;;2.07;0.50;;;;;;;;;;4985407;28;20277;-29
2022/05/24 12:01:33;;;;;;;0.53;0.50;;;;;;;;;;4983323;28;20252;-28
2022/05/24 12:10:11;;;;;;;0.40;0.40;;;;;;;;;;4990899;28;20252;-31
2022/05/24 12:12:46;;;;;;;0.60;0.60;;;;;;;;;;4986379;28;20206;-31
2022/05/24 12:15:18;;;;;;;0.40;0.30;;;;;;;;;;4984993;28;20209;-28
2022/05/24 12:17:46;;;;;;;0.37;0.37;;;;;;;;;;4975828;28;20211;-29
2022/05/24 12:20:52;;;;;;;0.53;0.30;;;;;;;;;;4987406;28;20657;-31
2022/05/24 12:23:33;;;;;;;1.13;0.40;;;;;;;;;;4992762;28;20203;-27
2022/05/24 12:26:03;;;;;;;1.10;0.50;;;;;;;;;;4976615;28;20255;-30
2022/05/24 12:28:46;;;;;;;2.43;0.60;;;;;;;;;;4982795;28;20207;-27
2022/05/24 12:31:18;;;;;;;1.17;0.30;;;;;;;;;;4977287;28;20206;-30
2022/05/24 12:33:48;;;;;;;0.40;0.40;;;;;;;;;;4984708;28;20206;-28
2022/05/24 12:36:26;;;;;;;0.63;0.50;;;;;;;;;;4983525;28;20225;-31
2022/05/24 12:39:00;;;;;;;0.30;0.30;;;;;;;;;;4993724;28;20207;-30
2022/05/24 12:41:30;;;;;;;0.40;0.40;;;;;;;;;;4978538;28;20214;-29
2022/05/24 12:43:58;;;;;;;2.10;0.60;;;;;;;;;;4992005;28;20292;-31
2022/05/24 12:46:28;;;;;;;0.70;0.70;;;;;;;;;;4985209;28;20313;-30
2022/05/24 12:48:59;;;;;;;0.57;0.50;;;;;;;;;;4981065;28;20230;-31
2022/05/24 12:51:26;;;;;;;0.40;0.40;;;;;;;;;;4984401;28;20218;-31
2022/05/24 12:53:55;;;;;;;0.30;0.30;;;;;;;;;;4984078;28;20248;-30
2022/05/24 12:56:23;;;;;;;1.77;0.57;;;;;;;;;;4988623;28;20233;-29
2022/05/24 12:58:55;;;;;;;0.67;0.67;;;;;;;;;;4974540;28;20216;-29
2022/05/24 13:01:24;;;;;;;1.27;0.20;;;;;;;;;;4993201;28;20218;-28
2022/05/24 13:03:58;;;;;;;0.37;0.37;;;;;;;;;;4977531;28;20213;-31
2022/05/24 13:06:27;;;;;;;0.70;0.40;;;;;;;;;;4986195;28;20310;-30
2022/05/24 13:09:11;;;;;;;2.10;0.50;;;;;;;;;;4985365;28;20246;-31
2022/05/24 13:11:38;;;;;;;0.83;0.33;;;;;;;;;;4981511;28;20209;-28
2022/05/24 13:14:06;;;;;;;0.50;0.50;;;;;;;;;;4987875;28;20240;-30
2022/05/24 13:16:34;;;;;;;1.03;0.70;;;;;;;;;;4985439;28;20293;-29
2022/05/24 13:19:03;;;;;;;1.50;0.57;;;;;;;;;;4983363;28;20297;-29
2022/05/24 13:21:31;;;;;;;1.17;0.57;;;;;;;;;;4988688;28;20233;-28
2022/05/24 13:24:08;;;;;;;0.53;0.50;;;;;;;;;;4986045;28;20895;-31
2022/05/24 13:26:37;;;;;;;1.27;0.70;;;;;;;;;;4989233;28;20226;-28
2022/05/24 13:29:19;;;;;;;1.23;0.60;;;;;;;;;;4981162;28;20211;-31
2022/05/24 13:34:33;;;;;;;1.80;0.40;;;;;;;;;;4985489;28;20220;-29
2022/05/24 13:37:01;;;;;;;0.30;0.30;;;;;;;;;;4989889;28;20234;-27
2022/05/24 13:39:29;;;;;;;0.50;0.50;;;;;;;;;;4974023;28;20539;-31
2022/05/24 13:42:05;;;;;;;1.50;0.60;;;;;;;;;;4984804;28;20235;-29
2022/05/24 13:44:33;;;;;;;1.20;0.43;;;;;;;;;;4991302;28;20288;-30
2022/05/24 13:47:01;;;;;;;0.30;0.30;;;;;;;;;;4994662;28;20232;-28
2022/05/24 13:49:31;;;;;;;1.90;0.40;;;;;;;;;;4986740;28;20241;-31
2022/05/24 13:52:13;;;;;;;1.37;0.50;;;;;;;;;;4983219;28;20206;-32
2022/05/24 13:54:40;;;;;;;0.50;0.50;;;;;;;;;;4976315;28;20249;-30
2022/05/24 13:57:20;;;;;;;2.47;0.50;;;;;;;;;;4980499;28;20227;-28
2022/05/24 13:59:55;;;;;;;0.60;0.50;;;;;;;;;;4991245;28;20201;-32
2022/05/24 14:02:24;;;;;;;0.50;0.43;;;;;;;;;;4974523;28;20241;-28
2022/05/24 14:04:51;;;;;;;0.47;0.40;;;;;;;;;;4981406;28;20309;-29
2022/05/24 14:07:19;;;;;;;2.10;0.50;;;;;;;;;;4982327;28;20310;-31
2022/05/24 14:09:46;;;;;;;0.40;0.30;;;;;;;;;;4975140;28;20231;-32
2022/05/24 14:12:15;;;;;;;0.50;0.50;;;;;;;;;;4977944;28;20297;-30
2022/05/24 14:14:46;;;;;;;0.47;0.47;;;;;;;;;;4983481;28;20241;-28
2022/05/24 14:17:14;;;;;;;1.83;1.00;;;;;;;;;;4987739;28;20275;-28
2022/05/24 14:19:42;;;;;;;0.67;0.60;;;;;;;;;;4974355;28;20206;-28
2022/05/24 14:22:10;;;;;;;0.53;0.53;;;;;;;;;;4973851;28;20223;-27
2022/05/24 14:24:40;;;;;;;0.57;0.57;;;;;;;;;;4973179;28;20215;-30
2022/05/24 14:27:08;;;;;;;5.13;0.67;;;;;;;;;;4980826;28;20285;-29
2022/05/24 14:29:37;;;;;;;1.10;0.43;;;;;;;;;;4981847;28;20211;-31
2022/05/24 14:32:05;;;;;;;1.00;0.50;;;;;;;;;;4972990;28;20215;-28
2022/05/24 14:34:32;;;;;;;1.13;0.60;;;;;;;;;;4978855;28;20211;-29
2022/05/24 14:37:00;;;;;;;1.87;0.80;;;;;;;;;;4985064;28;20230;-27
2022/05/24 14:39:27;;;;;;;1.43;0.63;;;;;;;;;;4998536;28;20258;-32
2022/05/24 14:41:55;;;;;;;0.80;0.80;;;;;;;;;;4993664;28;20215;-31
2022/05/24 14:44:33;;;;;;;2.03;0.50;;;;;;;;;;4987925;28;20206;-31
2022/05/24 14:47:03;;;;;;;0.50;0.50;;;;;;;;;;4991821;28;20247;-31
2022/05/24 14:49:30;;;;;;;1.13;0.70;;;;;;;;;;4977464;28;20656;-32
2022/05/24 14:52:00;;;;;;;0.43;0.43;;;;;;;;;;4992710;28;20217;-29
2022/05/24 14:54:27;;;;;;;1.10;0.40;;;;;;;;;;4992326;28;20211;-29
2022/05/24 14:56:55;;;;;;;0.50;0.50;;;;;;;;;;4980703;28;20319;-30
2022/05/24 14:59:25;;;;;;;0.50;0.50;;;;;;;;;;4981042;28;20216;-31
2022/05/24 15:01:52;;;;;;;2.97;0.73;;;;;;;;;;4983537;28;20234;-30
2022/05/24 15:17:39;;;;;;;2.07;0.53;;;;;;;;;;4956092;28;20288;-31
2022/05/24 15:20:07;;;;;;;0.47;0.47;;;;;;;;;;4963707;28;20263;-31
2022/05/24 15:22:35;;;;;;;2.73;0.60;;;;;;;;;;4965272;28;20229;-30
2022/05/24 15:25:04;;;;;;;0.80;0.60;;;;;;;;;;4954391;29;20200;-35
2022/05/24 15:27:32;;;;;;;0.87;0.60;;;;;;;;;;4960436;28;20236;-33
2022/05/24 15:29:59;;;;;;;0.60;0.60;;;;;;;;;;4954055;28;20215;-31
2022/05/24 15:32:26;;;;;;;0.60;0.40;;;;;;;;;;4954845;28;20710;-30
2022/05/24 15:34:53;;;;;;;0.93;0.40;;;;;;;;;;4954431;28;20296;-30
2022/05/24 15:37:20;;;;;;;0.93;0.70;;;;;;;;;;4964151;28;20234;-33
2022/05/24 15:39:47;;;;;;;1.87;0.50;;;;;;;;;;4977411;28;20207;-31
2022/05/24 15:42:15;;;;;;;1.20;0.60;;;;;;;;;;4973378;28;20226;-34
2022/05/24 15:44:43;;;;;;;1.50;0.57;;;;;;;;;;4959616;28;20207;-31
2022/05/24 15:47:10;;;;;;;2.43;0.70;;;;;;;;;;4967272;28;20226;-34
2022/05/24 15:49:37;;;;;;;1.13;0.63;;;;;;;;;;4971802;28;20210;-33
2022/05/24 15:52:07;;;;;;;3.57;1.87;;;;;;;;;;4967209;28;20632;-30
2022/05/24 15:54:34;;;;;;;1.30;0.53;;;;;;;;;;4975581;28;20215;-34
2022/05/24 15:57:02;;;;;;;7.80;4.97;;;;;;;;;;4968378;28;20284;-32
2022/05/24 15:59:31;;;;;;;7.40;1.70;;;;;;;;;;4969817;28;20218;-31
2022/05/24 16:01:59;;;;;;;0.63;0.40;;;;;;;;;;4965226;28;20254;-32